createdAt,value
2023-02-17T00:00:08.053Z,89
2023-02-17T00:01:08.166Z,89
2023-02-17T00:02:08.232Z,90
2023-02-17T00:03:08.557Z,89
2023-02-17T00:04:08.404Z,89
2023-02-17T00:05:08.005Z,89
2023-02-17T00:06:09.446Z,90
2023-02-17T00:07:08.401Z,90
2023-02-17T00:08:08.108Z,89
2023-02-17T00:09:08.033Z,90
2023-02-17T00:10:08.523Z,90
2023-02-17T00:11:08.468Z,89
2023-02-17T00:12:08.291Z,90
2023-02-17T00:13:08.270Z,90
2023-02-17T00:14:07.945Z,89
2023-02-17T00:16:09.489Z,90
2023-02-17T00:17:07.881Z,89
2023-02-17T00:18:07.886Z,90
2023-02-17T00:19:08.525Z,89
2023-02-17T00:20:08.207Z,90
2023-02-17T00:21:08.004Z,89
2023-02-17T00:22:08.754Z,89
2023-02-17T00:23:08.438Z,90
2023-02-17T00:24:08.186Z,90
2023-02-17T00:25:07.988Z,90
2023-02-17T00:26:09.279Z,89
2023-02-17T00:27:08.039Z,89
2023-02-17T00:28:08.734Z,90
2023-02-17T00:29:08.503Z,90
2023-02-17T00:30:08.494Z,90
2023-02-17T00:31:08.836Z,90
2023-02-17T00:32:08.652Z,89
2023-02-17T00:33:08.005Z,90
2023-02-17T00:34:08.659Z,89
2023-02-17T00:35:08.481Z,90
2023-02-17T00:36:09.077Z,90
2023-02-17T00:37:07.680Z,90
2023-02-17T00:38:08.592Z,90
2023-02-17T00:39:08.341Z,90
2023-02-17T00:40:07.813Z,90
2023-02-17T00:41:08.698Z,90
2023-02-17T00:42:08.194Z,90
2023-02-17T00:43:07.972Z,90
2023-02-17T00:44:08.832Z,90
2023-02-17T00:45:08.379Z,90
2023-02-17T00:46:09.430Z,90
2023-02-17T00:47:07.939Z,90
2023-02-17T00:48:07.984Z,90
2023-02-17T00:49:08.448Z,90
2023-02-17T00:50:08.296Z,90
2023-02-17T00:51:07.976Z,90
2023-02-17T00:53:08.226Z,90
2023-02-17T00:55:07.694Z,90
2023-02-17T00:58:07.912Z,90
2023-02-17T01:00:08.340Z,90
2023-02-17T01:01:08.201Z,90
2023-02-17T01:03:07.941Z,90
2023-02-17T01:04:08.632Z,90
2023-02-17T01:06:08.674Z,90
2023-02-17T01:07:08.672Z,90
2023-02-17T01:08:08.621Z,90
2023-02-17T01:09:08.338Z,90
2023-02-17T01:10:08.207Z,90
2023-02-17T01:11:07.744Z,90
2023-02-17T01:12:08.436Z,90
2023-02-17T01:13:08.167Z,90
2023-02-17T01:15:08.604Z,90
2023-02-17T01:16:09.184Z,90
2023-02-17T01:17:08.055Z,90
2023-02-17T01:19:08.198Z,90
2023-02-17T01:20:08.109Z,90
2023-02-17T01:21:08.512Z,90
2023-02-17T01:22:08.138Z,90
2023-02-17T01:23:08.524Z,90
2023-02-17T01:24:08.398Z,90
2023-02-17T01:25:08.546Z,90
2023-02-17T01:26:09.490Z,90
2023-02-17T01:27:08.631Z,90
2023-02-17T01:30:08.792Z,90
2023-02-17T01:31:08.764Z,90
2023-02-17T01:32:08.108Z,90
2023-02-17T01:33:08.401Z,90
2023-02-17T01:34:08.181Z,90
2023-02-17T01:35:07.830Z,90
2023-02-17T01:36:09.172Z,90
2023-02-17T01:37:08.272Z,90
2023-02-17T01:39:08.516Z,90
2023-02-17T01:41:07.793Z,90
2023-02-17T01:42:08.653Z,90
2023-02-17T01:43:08.219Z,90
2023-02-17T01:44:07.866Z,90
2023-02-17T01:45:08.539Z,90
2023-02-17T01:46:09.462Z,90
2023-02-17T01:47:08.526Z,90
2023-02-17T01:48:08.069Z,90
2023-02-17T01:50:08.477Z,90
2023-02-17T01:51:08.348Z,90
2023-02-17T01:52:08.111Z,90
2023-02-17T01:53:08.734Z,90
2023-02-17T01:54:08.692Z,90
2023-02-17T01:55:08.117Z,90
2023-02-17T01:56:08.733Z,90
2023-02-17T01:57:08.732Z,90
2023-02-17T01:58:08.328Z,90
2023-02-17T01:59:08.157Z,90
2023-02-17T02:00:07.949Z,90
2023-02-17T02:02:08.745Z,90
2023-02-17T02:03:08.105Z,90
2023-02-17T02:04:08.827Z,90
2023-02-17T02:06:09.054Z,90
2023-02-17T02:07:07.826Z,90
2023-02-17T02:09:08.757Z,90
2023-02-17T02:10:08.353Z,90
2023-02-17T02:11:07.909Z,90
2023-02-17T02:12:08.646Z,90
2023-02-17T02:13:08.297Z,90
2023-02-17T02:14:08.116Z,90
2023-02-17T02:15:07.897Z,90
2023-02-17T02:16:09.574Z,90
2023-02-17T02:17:08.422Z,90
2023-02-17T02:18:07.955Z,90
2023-02-17T02:19:08.075Z,90
2023-02-17T02:20:08.686Z,90
2023-02-17T02:21:08.104Z,90
2023-02-17T02:22:08.077Z,90
2023-02-17T02:23:08.921Z,90
2023-02-17T02:24:08.446Z,90
2023-02-17T02:26:08.821Z,90
2023-02-17T02:27:08.412Z,90
2023-02-17T02:28:08.246Z,90
2023-02-17T02:29:07.950Z,90
2023-02-17T02:30:08.927Z,90
2023-02-17T02:31:08.570Z,90
2023-02-17T02:32:08.108Z,90
2023-02-17T02:33:07.739Z,90
2023-02-17T02:34:08.465Z,90
2023-02-17T02:35:08.495Z,90
2023-02-17T02:36:08.887Z,90
2023-02-17T02:38:11.116Z,90
2023-02-17T02:39:08.267Z,90
2023-02-17T02:41:08.804Z,90
2023-02-17T02:42:08.345Z,90
2023-02-17T02:44:07.662Z,90
2023-02-17T02:45:08.699Z,90
2023-02-17T02:46:09.401Z,90
2023-02-17T02:47:07.906Z,90
2023-02-17T02:49:08.226Z,90
2023-02-17T02:51:08.886Z,90
2023-02-17T02:52:08.195Z,90
2023-02-17T02:53:08.031Z,90
2023-02-17T02:54:09.413Z,90
2023-02-17T02:55:08.473Z,90
2023-02-17T02:56:08.854Z,90
2023-02-17T02:57:07.712Z,90
2023-02-17T02:58:08.597Z,90
2023-02-17T02:59:08.237Z,90
2023-02-17T03:00:07.871Z,90
2023-02-17T03:02:08.315Z,90
2023-02-17T03:03:08.006Z,90
2023-02-17T03:04:08.857Z,90
2023-02-17T03:05:08.189Z,90
2023-02-17T03:06:08.850Z,90
2023-02-17T03:07:07.786Z,90
2023-02-17T03:08:08.553Z,90
2023-02-17T03:09:08.041Z,90
2023-02-17T03:10:07.992Z,90
2023-02-17T03:11:08.648Z,90
2023-02-17T03:12:08.228Z,90
2023-02-17T03:13:08.116Z,90
2023-02-17T03:14:07.704Z,90
2023-02-17T03:15:08.513Z,90
2023-02-17T03:16:08.688Z,90
2023-02-17T03:17:08.671Z,90
2023-02-17T03:18:08.431Z,90
2023-02-17T03:19:08.113Z,90
2023-02-17T03:20:07.811Z,90
2023-02-17T03:21:08.636Z,90
2023-02-17T03:22:08.247Z,90
2023-02-17T03:23:07.988Z,90
2023-02-17T03:24:08.607Z,90
2023-02-17T03:26:08.659Z,90
2023-02-17T03:27:08.645Z,90
2023-02-17T03:28:08.374Z,90
2023-02-17T03:29:07.998Z,90
2023-02-17T03:30:08.784Z,90
2023-02-17T03:32:08.015Z,90
2023-02-17T03:33:08.621Z,90
2023-02-17T03:35:08.073Z,90
2023-02-17T03:36:09.388Z,90
2023-02-17T03:37:08.199Z,90
2023-02-17T03:38:07.983Z,90
2023-02-17T03:40:08.169Z,90
2023-02-17T03:41:07.900Z,90
2023-02-17T03:42:08.638Z,90
2023-02-17T03:43:08.370Z,90
2023-02-17T03:44:08.163Z,90
2023-02-17T03:45:08.818Z,90
2023-02-17T03:46:09.329Z,90
2023-02-17T03:47:08.088Z,90
2023-02-17T03:48:07.808Z,90
2023-02-17T03:49:08.459Z,90
2023-02-17T03:50:08.203Z,90
2023-02-17T03:51:07.976Z,90
2023-02-17T03:52:08.744Z,90
2023-02-17T03:53:08.106Z,90
2023-02-17T03:54:07.864Z,90
2023-02-17T03:55:08.649Z,90
2023-02-17T03:56:09.175Z,90
2023-02-17T03:57:08.203Z,90
2023-02-17T03:58:07.579Z,90
2023-02-17T03:59:08.364Z,90
2023-02-17T04:00:08.147Z,90
2023-02-17T04:01:08.972Z,90
2023-02-17T04:02:08.404Z,90
2023-02-17T04:03:07.792Z,90
2023-02-17T04:04:08.756Z,90
2023-02-17T04:05:08.487Z,90
2023-02-17T04:06:09.176Z,90
2023-02-17T04:07:07.927Z,90
2023-02-17T04:08:08.619Z,90
2023-02-17T04:09:08.158Z,90
2023-02-17T04:10:13.553Z,89
2023-02-17T04:12:08.591Z,89
2023-02-17T04:13:08.304Z,89
2023-02-17T04:14:08.177Z,89
2023-02-17T04:15:08.484Z,89
2023-02-17T04:16:08.817Z,89
2023-02-17T04:17:08.484Z,89
2023-02-17T04:18:08.163Z,89
2023-02-17T04:20:08.624Z,89
2023-02-17T04:21:08.110Z,89
2023-02-17T04:23:08.064Z,89
2023-02-17T04:24:08.712Z,89
2023-02-17T04:25:08.258Z,89
2023-02-17T04:27:08.578Z,89
2023-02-17T04:28:08.342Z,89
2023-02-17T04:29:08.118Z,89
2023-02-17T04:30:10.824Z,89
2023-02-17T04:31:08.637Z,89
2023-02-17T04:32:09.056Z,89
2023-02-17T04:33:08.272Z,89
2023-02-17T04:36:09.569Z,89
2023-02-17T04:37:08.457Z,89
2023-02-17T04:38:08.078Z,89
2023-02-17T04:39:08.731Z,89
2023-02-17T04:40:08.491Z,89
2023-02-17T04:41:08.097Z,89
2023-02-17T04:42:07.724Z,89
2023-02-17T04:43:08.313Z,89
2023-02-17T04:44:08.060Z,89
2023-02-17T04:45:07.772Z,88
2023-02-17T04:47:07.998Z,88
2023-02-17T04:48:07.923Z,88
2023-02-17T04:49:08.505Z,88
2023-02-17T04:50:08.353Z,88
2023-02-17T04:51:08.009Z,88
2023-02-17T04:52:08.738Z,88
2023-02-17T04:53:08.233Z,88
2023-02-17T04:54:08.107Z,88
2023-02-17T04:55:07.874Z,88
2023-02-17T04:56:09.273Z,87
2023-02-17T04:57:08.147Z,87
2023-02-17T04:59:08.460Z,87
2023-02-17T05:00:08.395Z,87
2023-02-17T05:01:08.397Z,87
2023-02-17T05:02:08.010Z,87
2023-02-17T05:03:07.873Z,87
2023-02-17T05:04:08.384Z,87
2023-02-17T05:06:08.951Z,87
2023-02-17T05:07:07.663Z,87
2023-02-17T05:08:08.617Z,87
2023-02-17T05:09:08.030Z,87
2023-02-17T05:10:07.942Z,87
2023-02-17T05:11:08.489Z,87
2023-02-17T05:13:08.162Z,87
2023-02-17T05:14:08.655Z,87
2023-02-17T05:15:08.429Z,87
2023-02-17T05:16:09.256Z,87
2023-02-17T05:17:07.823Z,87
2023-02-17T05:18:08.445Z,86
2023-02-17T05:19:08.056Z,86
2023-02-17T05:20:07.832Z,86
2023-02-17T05:21:08.395Z,86
2023-02-17T05:22:08.222Z,86
2023-02-17T05:23:08.089Z,86
2023-02-17T05:24:07.929Z,86
2023-02-17T05:25:08.322Z,86
2023-02-17T05:26:09.103Z,86
2023-02-17T05:27:08.009Z,86
2023-02-17T05:28:08.700Z,86
2023-02-17T05:29:08.146Z,86
2023-02-17T05:30:08.230Z,86
2023-02-17T05:31:08.095Z,86
2023-02-17T05:32:09.063Z,86
2023-02-17T05:34:08.018Z,85
2023-02-17T05:35:07.672Z,85
2023-02-17T05:36:09.418Z,85
2023-02-17T05:37:07.943Z,85
2023-02-17T05:38:07.762Z,85
2023-02-17T05:39:08.487Z,85
2023-02-17T05:40:08.135Z,85
2023-02-17T05:41:07.903Z,85
2023-02-17T05:42:08.621Z,85
2023-02-17T05:43:08.238Z,85
2023-02-17T05:44:07.984Z,85
2023-02-17T05:45:08.619Z,84
2023-02-17T05:46:09.323Z,84
2023-02-17T05:48:07.720Z,84
2023-02-17T05:49:08.529Z,84
2023-02-17T05:50:08.251Z,84
2023-02-17T05:51:08.014Z,84
2023-02-17T05:52:08.622Z,84
2023-02-17T05:53:08.329Z,84
2023-02-17T05:54:07.934Z,84
2023-02-17T05:55:08.860Z,84
2023-02-17T05:56:09.598Z,84
2023-02-17T05:57:08.210Z,84
2023-02-17T05:58:07.886Z,84
2023-02-17T05:59:08.398Z,84
2023-02-17T06:00:08.178Z,84
2023-02-17T06:01:08.444Z,84
2023-02-17T06:02:08.014Z,84
2023-02-17T06:03:09.020Z,84
2023-02-17T06:04:08.559Z,84
2023-02-17T06:05:08.664Z,84
2023-02-17T06:06:08.626Z,84
2023-02-17T06:07:08.083Z,84
2023-02-17T06:09:08.485Z,84
2023-02-17T06:10:08.171Z,84
2023-02-17T06:11:07.965Z,84
2023-02-17T06:12:08.760Z,84
2023-02-17T06:13:08.440Z,83
2023-02-17T06:14:08.274Z,83
2023-02-17T06:15:07.980Z,83
2023-02-17T06:16:09.957Z,83
2023-02-17T06:17:08.816Z,83
2023-02-17T06:18:08.412Z,83
2023-02-17T06:19:08.012Z,83
2023-02-17T06:20:08.481Z,83
2023-02-17T06:21:08.420Z,83
2023-02-17T06:22:07.808Z,83
2023-02-17T06:24:08.504Z,83
2023-02-17T06:25:07.996Z,83
2023-02-17T06:26:09.607Z,83
2023-02-17T06:27:08.361Z,83
2023-02-17T06:28:08.078Z,83
2023-02-17T06:30:08.583Z,83
2023-02-17T06:31:08.844Z,83
2023-02-17T06:34:10.816Z,83
2023-02-17T06:35:08.082Z,83
2023-02-17T06:36:09.663Z,83
2023-02-17T06:37:08.402Z,83
2023-02-17T06:38:08.334Z,83
2023-02-17T06:39:07.840Z,83
2023-02-17T06:40:08.437Z,83
2023-02-17T06:41:08.279Z,82
2023-02-17T06:42:08.069Z,82
2023-02-17T06:43:07.815Z,82
2023-02-17T06:45:08.111Z,82
2023-02-17T06:46:09.853Z,82
2023-02-17T06:48:07.954Z,82
2023-02-17T06:49:08.665Z,82
2023-02-17T06:50:08.137Z,82
2023-02-17T06:51:07.886Z,82
2023-02-17T06:52:08.626Z,82
2023-02-17T06:53:08.282Z,82
2023-02-17T06:54:08.193Z,82
2023-02-17T06:55:08.800Z,81
2023-02-17T06:56:09.279Z,81
2023-02-17T06:57:08.064Z,81
2023-02-17T06:58:07.869Z,81
2023-02-17T06:59:08.705Z,81
2023-02-17T07:00:08.348Z,81
2023-02-17T07:01:08.701Z,81
2023-02-17T07:02:09.528Z,81
2023-02-17T07:03:08.428Z,81
2023-02-17T07:04:08.760Z,81
2023-02-17T07:05:08.439Z,81
2023-02-17T07:06:08.697Z,81
2023-02-17T07:07:08.577Z,81
2023-02-17T07:09:07.905Z,81
2023-02-17T07:10:08.822Z,81
2023-02-17T07:11:08.516Z,81
2023-02-17T07:12:08.080Z,81
2023-02-17T07:13:07.913Z,81
2023-02-17T07:14:08.646Z,80
2023-02-17T07:15:09.407Z,80
2023-02-17T07:16:09.790Z,80
2023-02-17T07:17:08.210Z,80
2023-02-17T07:18:07.979Z,80
2023-02-17T07:21:08.254Z,80
2023-02-17T07:22:07.656Z,80
2023-02-17T07:23:08.961Z,80
2023-02-17T07:24:08.438Z,80
2023-02-17T07:25:08.076Z,80
2023-02-17T07:26:08.655Z,80
2023-02-17T07:27:10.396Z,80
2023-02-17T07:28:08.281Z,80
2023-02-17T07:30:08.968Z,80
2023-02-17T07:31:08.258Z,80
2023-02-17T07:32:09.066Z,80
2023-02-17T07:33:11.122Z,80
2023-02-17T07:34:08.336Z,80
2023-02-17T07:35:08.163Z,80
2023-02-17T07:36:08.637Z,80
2023-02-17T07:37:08.475Z,79
2023-02-17T07:38:08.339Z,80
2023-02-17T07:39:08.006Z,80
2023-02-17T07:40:07.863Z,79
2023-02-17T07:42:08.181Z,79
2023-02-17T07:44:08.590Z,79
2023-02-17T07:46:09.314Z,79
2023-02-17T07:47:07.917Z,79
2023-02-17T07:48:08.516Z,79
2023-02-17T07:49:08.412Z,79
2023-02-17T07:50:08.250Z,79
2023-02-17T07:51:07.955Z,79
2023-02-17T07:52:11.368Z,79
2023-02-17T07:53:08.163Z,79
2023-02-17T07:54:08.565Z,79
2023-02-17T07:56:09.046Z,78
2023-02-17T07:57:08.896Z,78
2023-02-17T07:58:08.386Z,78
2023-02-17T07:59:08.473Z,78
2023-02-17T08:00:10.537Z,78
2023-02-17T08:01:08.016Z,77
2023-02-17T08:02:09.047Z,77
2023-02-17T08:03:08.444Z,77
2023-02-17T08:04:08.366Z,77
2023-02-17T08:05:08.830Z,77
2023-02-17T08:06:09.663Z,77
2023-02-17T08:07:08.284Z,77
2023-02-17T08:08:07.849Z,77
2023-02-17T08:09:08.711Z,77
2023-02-17T08:11:09.178Z,77
2023-02-17T08:12:07.937Z,77
2023-02-17T08:13:07.798Z,77
2023-02-17T08:14:08.544Z,77
2023-02-17T08:15:08.382Z,77
2023-02-17T08:16:08.996Z,76
2023-02-17T08:17:07.840Z,76
2023-02-17T08:18:08.976Z,76
2023-02-17T08:19:10.800Z,76
2023-02-17T08:20:14.270Z,76
2023-02-17T08:21:09.634Z,76
2023-02-17T08:22:08.544Z,75
2023-02-17T08:23:08.141Z,75
2023-02-17T08:24:08.010Z,75
2023-02-17T08:25:08.676Z,75
2023-02-17T08:26:09.405Z,75
2023-02-17T08:27:07.984Z,75
2023-02-17T08:28:08.672Z,75
2023-02-17T08:29:08.252Z,74
2023-02-17T08:31:09.215Z,74
2023-02-17T08:32:08.724Z,74
2023-02-17T08:33:08.774Z,74
2023-02-17T08:34:08.552Z,73
2023-02-17T08:35:08.209Z,73
2023-02-17T08:36:08.693Z,73
2023-02-17T08:37:08.871Z,73
2023-02-17T08:38:08.333Z,73
2023-02-17T08:39:07.992Z,73
2023-02-17T08:40:08.729Z,72
2023-02-17T08:41:08.694Z,73
2023-02-17T08:42:08.286Z,73
2023-02-17T08:43:09.913Z,73
2023-02-17T08:44:08.020Z,73
2023-02-17T08:45:08.658Z,73
2023-02-17T08:46:09.539Z,72
2023-02-17T08:47:08.484Z,72
2023-02-17T08:48:08.544Z,72
2023-02-17T08:49:08.098Z,72
2023-02-17T08:51:08.654Z,72
2023-02-17T08:52:08.342Z,72
2023-02-17T08:53:08.105Z,72
2023-02-17T08:54:07.894Z,72
2023-02-17T08:55:08.753Z,72
2023-02-17T08:56:09.427Z,72
2023-02-17T08:57:08.319Z,72
2023-02-17T08:58:08.210Z,72
2023-02-17T08:59:08.709Z,71
2023-02-17T09:00:10.634Z,71
2023-02-17T09:01:08.491Z,71
2023-02-17T09:02:08.263Z,71
2023-02-17T09:03:08.700Z,71
2023-02-17T09:04:08.383Z,72
2023-02-17T09:05:08.501Z,71
2023-02-17T09:06:08.643Z,71
2023-02-17T09:07:08.911Z,71
2023-02-17T09:08:08.656Z,71
2023-02-17T09:09:07.995Z,71
2023-02-17T09:10:07.891Z,71
2023-02-17T09:11:11.233Z,71
2023-02-17T09:12:08.025Z,71
2023-02-17T09:13:08.149Z,71
2023-02-17T09:14:08.877Z,70
2023-02-17T09:15:08.412Z,71
2023-02-17T09:16:09.937Z,71
2023-02-17T09:17:08.245Z,71
2023-02-17T09:18:08.211Z,70
2023-02-17T09:19:07.987Z,70
2023-02-17T09:20:26.825Z,70
2023-02-17T09:22:08.866Z,70
2023-02-17T09:23:07.988Z,70
2023-02-17T09:24:08.866Z,70
2023-02-17T09:25:08.633Z,70
2023-02-17T09:26:09.131Z,70
2023-02-17T09:27:07.839Z,70
2023-02-17T09:28:08.205Z,70
2023-02-17T09:30:07.986Z,70
2023-02-17T09:31:08.674Z,70
2023-02-17T09:32:09.010Z,70
2023-02-17T09:33:07.696Z,69
2023-02-17T09:34:08.669Z,69
2023-02-17T09:35:08.422Z,69
2023-02-17T09:36:08.871Z,69
2023-02-17T09:37:08.806Z,69
2023-02-17T09:38:08.452Z,68
2023-02-17T09:39:08.269Z,68
2023-02-17T09:40:08.743Z,68
2023-02-17T09:41:08.538Z,68
2023-02-17T09:42:08.138Z,68
2023-02-17T09:43:07.964Z,68
2023-02-17T09:44:08.579Z,68
2023-02-17T09:45:08.128Z,68
2023-02-17T09:46:09.130Z,68
2023-02-17T09:47:09.675Z,68
2023-02-17T09:48:08.631Z,69
2023-02-17T09:49:08.297Z,68
2023-02-17T09:50:07.743Z,68
2023-02-17T09:51:08.431Z,68
2023-02-17T09:53:08.980Z,68
2023-02-17T09:54:08.524Z,68
2023-02-17T09:55:08.280Z,67
2023-02-17T09:56:09.964Z,67
2023-02-17T09:57:08.671Z,67
2023-02-17T09:58:08.217Z,67
2023-02-17T09:59:08.795Z,67
2023-02-17T10:00:08.429Z,67
2023-02-17T10:01:08.286Z,68
2023-02-17T10:02:07.851Z,67
2023-02-17T10:03:09.845Z,67
2023-02-17T10:05:08.482Z,66
2023-02-17T10:06:09.600Z,66
2023-02-17T10:07:08.364Z,66
2023-02-17T10:08:08.352Z,66
2023-02-17T10:09:08.059Z,66
2023-02-17T10:10:08.530Z,66
2023-02-17T10:11:08.510Z,66
2023-02-17T10:12:07.742Z,67
2023-02-17T10:13:08.722Z,66
2023-02-17T10:14:08.334Z,66
2023-02-17T10:15:07.948Z,66
2023-02-17T10:17:08.448Z,66
2023-02-17T10:18:08.247Z,65
2023-02-17T10:19:08.160Z,64
2023-02-17T10:20:08.945Z,65
2023-02-17T10:21:08.563Z,65
2023-02-17T10:22:08.039Z,65
2023-02-17T10:23:08.744Z,64
2023-02-17T10:24:08.646Z,64
2023-02-17T10:25:08.220Z,64
2023-02-17T10:26:10.072Z,65
2023-02-17T10:28:08.417Z,65
2023-02-17T10:29:08.309Z,65
2023-02-17T10:30:08.190Z,65
2023-02-17T10:31:08.291Z,65
2023-02-17T10:32:09.222Z,65
2023-02-17T10:33:08.337Z,64
2023-02-17T10:34:08.914Z,65
2023-02-17T10:35:08.483Z,64
2023-02-17T10:36:08.923Z,64
2023-02-17T10:37:08.894Z,64
2023-02-17T10:38:08.915Z,65
2023-02-17T10:40:08.249Z,65
2023-02-17T10:41:08.077Z,65
2023-02-17T10:42:08.603Z,64
2023-02-17T10:43:11.648Z,65
2023-02-17T10:44:07.865Z,65
2023-02-17T10:45:08.596Z,65
2023-02-17T10:46:09.338Z,65
2023-02-17T10:47:07.904Z,65
2023-02-17T10:48:08.917Z,65
2023-02-17T10:49:11.295Z,65
2023-02-17T10:50:08.068Z,65
2023-02-17T10:52:08.595Z,65
2023-02-17T10:53:08.317Z,65
2023-02-17T10:54:08.023Z,65
2023-02-17T10:56:09.858Z,65
2023-02-17T10:57:08.211Z,65
2023-02-17T10:58:08.123Z,65
2023-02-17T10:59:07.790Z,65
2023-02-17T11:00:08.535Z,65
2023-02-17T11:01:09.334Z,65
2023-02-17T11:02:08.458Z,65
2023-02-17T11:03:08.323Z,65
2023-02-17T11:04:09.809Z,65
2023-02-17T11:05:08.248Z,65
2023-02-17T11:06:08.542Z,65
2023-02-17T11:07:07.804Z,65
2023-02-17T11:08:08.709Z,65
2023-02-17T11:09:08.478Z,66
2023-02-17T11:10:08.140Z,66
2023-02-17T11:11:07.832Z,66
2023-02-17T11:12:08.334Z,66
2023-02-17T11:13:07.958Z,65
2023-02-17T11:16:10.252Z,66
2023-02-17T11:17:08.029Z,66
2023-02-17T11:18:08.438Z,66
2023-02-17T11:19:09.175Z,66
2023-02-17T11:20:08.639Z,66
2023-02-17T11:22:08.818Z,66
2023-02-17T11:23:08.429Z,66
2023-02-17T11:24:08.301Z,66
2023-02-17T11:25:07.948Z,66
2023-02-17T11:26:09.526Z,66
2023-02-17T11:27:08.444Z,66
2023-02-17T11:28:08.152Z,66
2023-02-17T11:29:08.562Z,66
2023-02-17T11:30:08.655Z,66
2023-02-17T11:31:08.652Z,66
2023-02-17T11:32:08.448Z,65
2023-02-17T11:33:08.606Z,65
2023-02-17T11:34:08.382Z,65
2023-02-17T11:35:07.914Z,65
2023-02-17T11:36:09.469Z,65
2023-02-17T11:37:08.413Z,65
2023-02-17T11:38:08.258Z,65
2023-02-17T11:39:08.092Z,65
2023-02-17T11:40:08.651Z,64
2023-02-17T11:42:08.184Z,65
2023-02-17T11:43:07.895Z,65
2023-02-17T11:44:08.569Z,65
2023-02-17T11:45:08.048Z,65
2023-02-17T11:46:10.177Z,65
2023-02-17T11:47:08.533Z,65
2023-02-17T11:48:08.157Z,65
2023-02-17T11:49:07.928Z,65
2023-02-17T11:52:08.228Z,65
2023-02-17T11:53:07.864Z,65
2023-02-17T11:54:08.458Z,65
2023-02-17T11:55:08.235Z,64
2023-02-17T11:56:08.672Z,64
2023-02-17T11:57:08.521Z,65
2023-02-17T11:58:08.248Z,65
2023-02-17T11:59:08.045Z,64
2023-02-17T12:00:07.923Z,64
2023-02-17T12:01:08.599Z,64
2023-02-17T12:02:08.082Z,64
2023-02-17T12:04:08.541Z,64
2023-02-17T12:05:08.633Z,64
2023-02-17T12:06:09.012Z,64
2023-02-17T12:07:07.909Z,64
2023-02-17T12:08:08.565Z,64
2023-02-17T12:09:08.338Z,64
2023-02-17T12:10:07.817Z,64
2023-02-17T12:12:08.577Z,64
2023-02-17T12:13:08.286Z,64
2023-02-17T12:14:07.805Z,64
2023-02-17T12:16:09.121Z,64
2023-02-17T12:17:07.789Z,65
2023-02-17T12:18:08.760Z,65
2023-02-17T12:19:08.358Z,66
2023-02-17T12:20:08.006Z,66
2023-02-17T12:21:08.683Z,66
2023-02-17T12:22:08.356Z,66
2023-02-17T12:23:08.135Z,67
2023-02-17T12:24:08.857Z,67
2023-02-17T12:25:10.561Z,67
2023-02-17T12:26:08.761Z,67
2023-02-17T12:27:08.115Z,67
2023-02-17T12:28:07.771Z,67
2023-02-17T12:29:08.399Z,67
2023-02-17T12:30:08.490Z,67
2023-02-17T12:31:12.229Z,67
2023-02-17T12:32:08.859Z,67
2023-02-17T12:33:07.916Z,67
2023-02-17T12:34:08.559Z,67
2023-02-17T12:35:08.034Z,67
2023-02-17T12:36:08.339Z,67
2023-02-17T12:37:08.555Z,67
2023-02-17T12:38:08.466Z,67
2023-02-17T12:39:08.074Z,68
2023-02-17T12:40:08.796Z,68
2023-02-17T12:41:08.510Z,68
2023-02-17T12:42:08.301Z,68
2023-02-17T12:43:07.742Z,68
2023-02-17T12:44:08.687Z,68
2023-02-17T12:45:08.584Z,68
2023-02-17T12:46:09.493Z,68
2023-02-17T12:47:07.958Z,68
2023-02-17T12:48:07.865Z,68
2023-02-17T12:49:10.775Z,68
2023-02-17T12:50:08.488Z,67
2023-02-17T12:51:08.265Z,67
2023-02-17T12:52:07.886Z,67
2023-02-17T12:53:08.629Z,67
2023-02-17T12:54:07.956Z,67
2023-02-17T12:55:07.890Z,67
2023-02-17T12:56:09.380Z,67
2023-02-17T12:57:08.392Z,67
2023-02-17T12:58:08.144Z,67
2023-02-17T12:59:07.826Z,67
2023-02-17T13:00:08.196Z,67
2023-02-17T13:02:08.305Z,67
2023-02-17T13:04:08.423Z,67
2023-02-17T13:05:08.068Z,67
2023-02-17T13:06:08.854Z,67
2023-02-17T13:07:08.146Z,67
2023-02-17T13:08:08.715Z,67
2023-02-17T13:09:08.649Z,66
2023-02-17T13:10:08.076Z,66
2023-02-17T13:11:07.954Z,66
2023-02-17T13:12:08.543Z,66
2023-02-17T13:13:08.285Z,66
2023-02-17T13:14:08.123Z,66
2023-02-17T13:15:08.770Z,67
2023-02-17T13:16:09.656Z,67
2023-02-17T13:17:08.230Z,67
2023-02-17T13:18:08.055Z,67
2023-02-17T13:19:08.705Z,67
2023-02-17T13:20:08.489Z,66
2023-02-17T13:21:08.144Z,66
2023-02-17T13:22:07.867Z,66
2023-02-17T13:23:08.373Z,66
2023-02-17T13:24:08.077Z,66
2023-02-17T13:26:09.310Z,66
2023-02-17T13:27:08.263Z,66
2023-02-17T13:28:08.014Z,66
2023-02-17T13:29:08.689Z,66
2023-02-17T13:30:08.570Z,65
2023-02-17T13:31:08.760Z,65
2023-02-17T13:32:09.192Z,65
2023-02-17T13:33:07.989Z,66
2023-02-17T13:34:08.564Z,65
2023-02-17T13:35:08.183Z,65
2023-02-17T13:36:08.684Z,66
2023-02-17T13:37:09.925Z,66
2023-02-17T13:38:08.451Z,66
2023-02-17T13:39:08.046Z,66
2023-02-17T13:40:08.883Z,66
2023-02-17T13:41:08.375Z,66
2023-02-17T13:42:08.307Z,66
2023-02-17T13:43:08.102Z,66
2023-02-17T13:44:08.693Z,66
2023-02-17T13:45:08.377Z,66
2023-02-17T13:46:09.758Z,66
2023-02-17T13:47:08.411Z,66
2023-02-17T13:48:08.099Z,66
2023-02-17T13:49:08.544Z,66
2023-02-17T13:50:08.471Z,67
2023-02-17T13:51:08.314Z,67
2023-02-17T13:52:07.681Z,67
2023-02-17T13:53:08.764Z,68
2023-02-17T13:54:08.486Z,68
2023-02-17T13:55:08.260Z,68
2023-02-17T13:56:09.473Z,68
2023-02-17T13:57:08.271Z,68
2023-02-17T13:58:08.148Z,68
2023-02-17T13:59:08.673Z,68
2023-02-17T14:01:08.623Z,69
2023-02-17T14:03:08.972Z,69
2023-02-17T14:04:08.315Z,69
2023-02-17T14:05:08.305Z,69
2023-02-17T14:07:08.534Z,69
2023-02-17T14:08:08.271Z,69
2023-02-17T14:09:07.904Z,69
2023-02-17T14:10:08.593Z,69
2023-02-17T14:11:08.466Z,70
2023-02-17T14:13:08.728Z,70
2023-02-17T14:15:08.340Z,70
2023-02-17T14:16:09.247Z,71
2023-02-17T14:17:08.053Z,71
2023-02-17T14:18:08.506Z,71
2023-02-17T14:19:08.282Z,71
2023-02-17T14:20:08.068Z,71
2023-02-17T14:21:09.657Z,72
2023-02-17T14:22:08.412Z,72
2023-02-17T14:23:10.823Z,72
2023-02-17T14:24:08.344Z,72
2023-02-17T14:25:08.779Z,72
2023-02-17T14:26:09.030Z,73
2023-02-17T14:27:07.889Z,73
2023-02-17T14:28:08.553Z,73
2023-02-17T14:30:11.613Z,73
2023-02-17T14:31:09.924Z,72
2023-02-17T14:32:09.185Z,72
2023-02-17T14:33:08.257Z,72
2023-02-17T14:36:09.271Z,73
2023-02-17T14:37:07.946Z,73
2023-02-17T14:38:08.818Z,73
2023-02-17T14:39:08.611Z,73
2023-02-17T14:40:07.956Z,73
2023-02-17T14:41:08.831Z,74
2023-02-17T14:42:08.647Z,74
2023-02-17T14:44:07.950Z,74
2023-02-17T14:45:08.688Z,74
2023-02-17T14:46:09.050Z,74
2023-02-17T14:47:07.912Z,74
2023-02-17T14:48:08.561Z,74
2023-02-17T14:49:08.142Z,74
2023-02-17T14:50:08.129Z,74
2023-02-17T14:51:08.870Z,75
2023-02-17T14:52:08.563Z,75
2023-02-17T14:53:08.362Z,75
2023-02-17T14:54:07.962Z,75
2023-02-17T14:55:08.600Z,75
2023-02-17T14:56:09.475Z,75
2023-02-17T14:57:08.371Z,75
2023-02-17T14:58:08.625Z,75
2023-02-17T15:00:08.169Z,75
2023-02-17T15:01:07.944Z,75
2023-02-17T15:02:08.777Z,75
2023-02-17T15:03:08.518Z,75
2023-02-17T15:04:08.222Z,75
2023-02-17T15:05:07.950Z,75
2023-02-17T15:06:09.020Z,75
2023-02-17T15:07:08.448Z,75
2023-02-17T15:08:08.143Z,75
2023-02-17T15:09:08.844Z,75
2023-02-17T15:10:08.581Z,75
2023-02-17T15:11:08.378Z,75
2023-02-17T15:12:08.029Z,75
2023-02-17T15:13:08.885Z,75
2023-02-17T15:14:08.436Z,75
2023-02-17T15:15:08.142Z,75
2023-02-17T15:16:09.507Z,75
2023-02-17T15:17:08.253Z,75
2023-02-17T15:18:07.849Z,75
2023-02-17T15:19:08.546Z,75
2023-02-17T15:20:08.188Z,75
2023-02-17T15:21:07.939Z,75
2023-02-17T15:25:08.542Z,75
2023-02-17T15:26:08.921Z,75
2023-02-17T15:27:08.631Z,75
2023-02-17T15:28:08.461Z,75
2023-02-17T15:29:08.006Z,75
2023-02-17T15:30:07.954Z,75
2023-02-17T15:31:08.584Z,75
2023-02-17T15:32:08.433Z,75
2023-02-17T15:33:08.609Z,75
2023-02-17T15:34:08.267Z,75
2023-02-17T15:36:09.654Z,75
2023-02-17T15:37:08.500Z,75
2023-02-17T15:38:07.977Z,75
2023-02-17T15:39:07.771Z,75
2023-02-17T15:40:08.294Z,75
2023-02-17T15:41:08.184Z,75
2023-02-17T15:42:08.759Z,75
2023-02-17T15:43:08.341Z,75
2023-02-17T15:44:09.522Z,75
2023-02-17T15:45:07.584Z,75
2023-02-17T15:46:09.301Z,75
2023-02-17T15:47:08.294Z,75
2023-02-17T15:48:08.075Z,75
2023-02-17T15:49:08.728Z,75